createdAt,value
2022-12-31T00:00:00.119Z,24.38
2022-12-31T00:11:31.830Z,24.95
2022-12-31T00:16:44.116Z,24.40
2022-12-31T00:22:13.424Z,24.90
2022-12-31T00:27:24.241Z,24.73
2022-12-31T00:32:49.294Z,23.17
2022-12-31T00:38:00.870Z,21.77
2022-12-31T00:43:11.058Z,21.85
2022-12-31T00:48:23.649Z,21.67
2022-12-31T00:53:54.958Z,22.15
2022-12-31T00:59:13.453Z,23.50
2022-12-31T01:04:20.418Z,23.02
2022-12-31T01:09:28.482Z,24.02
2022-12-31T01:14:35.881Z,24.35
2022-12-31T01:19:48.761Z,22.13
2022-12-31T01:24:59.071Z,21.13
2022-12-31T01:30:21.892Z,22.42
2022-12-31T01:35:29.916Z,22.30
2022-12-31T01:40:44.771Z,23.27
2022-12-31T01:45:53.065Z,24.33
2022-12-31T01:56:29.787Z,21.75
2022-12-31T02:01:45.157Z,23.58
2022-12-31T02:06:54.035Z,20.48
2022-12-31T02:12:04.554Z,22.05
2022-12-31T02:17:28.156Z,22.58
2022-12-31T02:22:53.185Z,21.83
2022-12-31T02:28:13.006Z,21.42
2022-12-31T02:33:32.735Z,21.35
2022-12-31T02:38:44.531Z,21.40
2022-12-31T02:43:55.791Z,20.92
2022-12-31T02:49:13.622Z,20.88
2022-12-31T02:54:26.879Z,21.75
2022-12-31T02:59:55.686Z,20.92
2022-12-31T03:05:05.317Z,21.27
2022-12-31T03:10:11.772Z,21.05
2022-12-31T03:21:22.330Z,26.45
2022-12-31T06:19:17.990Z,17.50
2022-12-31T06:24:50.516Z,19.50
2022-12-31T06:30:27.753Z,17.25
2022-12-31T06:35:45.092Z,18.92
2022-12-31T06:47:31.086Z,17.05
2022-12-31T06:53:22.791Z,17.50
2022-12-31T07:49:59.072Z,16.52
2022-12-31T07:55:41.169Z,15.18
2022-12-31T08:17:38.436Z,14.27
2022-12-31T08:22:59.038Z,15.02
2022-12-31T08:40:29.159Z,20.00
2022-12-31T08:46:32.715Z,19.30
2022-12-31T08:52:06.274Z,16.52
2022-12-31T09:02:51.167Z,17.67
2022-12-31T09:08:22.946Z,16.27
2022-12-31T09:18:51.916Z,17.77
2022-12-31T09:30:03.478Z,14.60
2022-12-31T10:08:48.073Z,16.13
2022-12-31T10:26:00.292Z,12.50
2022-12-31T10:37:10.593Z,15.57
2022-12-31T10:43:26.699Z,14.88
2022-12-31T11:13:56.780Z,13.07
2022-12-31T11:19:31.175Z,13.02
2022-12-31T11:24:59.647Z,11.23
2022-12-31T11:30:17.929Z,10.07
2022-12-31T11:35:36.671Z,10.50
2022-12-31T11:40:55.095Z,9.95
2022-12-31T11:46:35.235Z,8.68
2022-12-31T11:51:59.601Z,8.68
2022-12-31T11:57:20.428Z,9.25
2022-12-31T12:02:30.974Z,10.43
2022-12-31T12:07:40.240Z,10.43
2022-12-31T12:12:49.867Z,9.68
2022-12-31T12:18:02.414Z,10.13
2022-12-31T12:23:19.174Z,11.20
2022-12-31T12:28:38.392Z,12.15
2022-12-31T12:33:49.614Z,9.40
2022-12-31T12:39:22.953Z,7.82
2022-12-31T12:44:34.147Z,8.27
2022-12-31T12:49:43.069Z,8.20
2022-12-31T12:55:00.882Z,8.65
2022-12-31T13:00:17.356Z,62.15
2022-12-31T13:05:30.937Z,132.25
2022-12-31T13:11:03.864Z,86.93
2022-12-31T13:16:17.356Z,26.83
2022-12-31T13:21:40.362Z,15.73
2022-12-31T13:26:50.505Z,13.23
2022-12-31T13:32:00.181Z,12.73
2022-12-31T13:37:08.963Z,11.90
2022-12-31T13:42:18.868Z,10.35
2022-12-31T13:47:38.264Z,11.43
2022-12-31T13:52:47.274Z,9.55
2022-12-31T13:57:55.054Z,9.98
2022-12-31T14:03:14.049Z,10.65
2022-12-31T14:08:19.909Z,11.90
2022-12-31T14:13:36.832Z,12.13
2022-12-31T14:18:50.404Z,10.35
2022-12-31T14:24:08.884Z,12.45
2022-12-31T14:29:27.300Z,12.30
2022-12-31T14:34:46.151Z,14.43
2022-12-31T14:39:56.807Z,14.18
2022-12-31T14:45:10.911Z,19.48
2022-12-31T14:50:21.086Z,15.98
2022-12-31T14:55:30.319Z,19.17
2022-12-31T15:00:39.080Z,15.90
2022-12-31T15:05:56.278Z,14.35
2022-12-31T15:11:16.245Z,13.90
2022-12-31T15:16:50.225Z,14.40
2022-12-31T15:22:22.675Z,13.27
2022-12-31T15:33:13.778Z,15.63
2022-12-31T15:38:39.824Z,16.92
2022-12-31T15:43:49.600Z,17.15
2022-12-31T15:49:03.892Z,15.85
2022-12-31T15:54:27.233Z,16.67
2022-12-31T15:59:32.951Z,16.38
2022-12-31T16:04:46.677Z,17.65
2022-12-31T16:09:57.622Z,18.25
2022-12-31T16:15:05.611Z,19.50
2022-12-31T16:20:26.269Z,19.90
2022-12-31T16:25:37.683Z,20.17
2022-12-31T16:30:46.116Z,31.65
2022-12-31T16:36:00.965Z,25.90
2022-12-31T16:41:21.249Z,21.27
2022-12-31T16:51:35.769Z,18.63
2022-12-31T17:01:50.486Z,19.25
2022-12-31T17:06:56.804Z,20.45
2022-12-31T17:12:16.435Z,20.67
2022-12-31T17:17:25.744Z,29.40
2022-12-31T17:22:37.288Z,27.30
2022-12-31T17:27:56.280Z,24.52
2022-12-31T17:33:04.480Z,25.38
2022-12-31T17:38:43.028Z,24.27
2022-12-31T17:43:55.735Z,23.05
2022-12-31T17:49:06.879Z,25.10
2022-12-31T17:54:17.607Z,27.70
2022-12-31T17:59:30.832Z,46.08
2022-12-31T18:04:37.949Z,39.10
2022-12-31T18:09:43.822Z,40.15
2022-12-31T18:14:53.105Z,38.47
2022-12-31T18:20:07.319Z,45.28
2022-12-31T18:30:26.711Z,39.05
2022-12-31T18:36:06.999Z,41.15
2022-12-31T18:41:00.946Z,54.65
2022-12-31T18:46:09.614Z,53.53
2022-12-31T18:51:23.972Z,49.97
2022-12-31T18:56:33.095Z,42.40
2022-12-31T19:01:43.390Z,45.42
2022-12-31T19:06:49.843Z,45.58
2022-12-31T19:11:55.692Z,50.42
2022-12-31T19:22:30.628Z,36.80
2022-12-31T19:32:49.978Z,47.38
2022-12-31T19:37:57.515Z,43.72
2022-12-31T19:43:03.493Z,40.80
2022-12-31T19:48:15.205Z,38.50
2022-12-31T19:53:29.042Z,30.92
2022-12-31T19:58:35.914Z,28.40
2022-12-31T20:03:45.049Z,28.77
2022-12-31T20:08:50.888Z,30.35
2022-12-31T20:13:57.784Z,27.73
2022-12-31T20:19:07.612Z,26.38
2022-12-31T20:24:13.318Z,23.90
2022-12-31T20:29:19.262Z,26.58
2022-12-31T20:34:27.754Z,26.30
2022-12-31T20:39:33.540Z,25.85
2022-12-31T20:44:39.890Z,24.40
2022-12-31T20:55:15.346Z,24.77
2022-12-31T21:00:22.366Z,21.45
2022-12-31T21:05:32.556Z,24.08
2022-12-31T21:10:38.322Z,34.00
2022-12-31T21:15:45.474Z,29.92
2022-12-31T21:20:55.342Z,30.38
2022-12-31T21:26:01.468Z,29.77
2022-12-31T21:31:18.179Z,30.77
2022-12-31T21:42:20.200Z,28.55
2022-12-31T21:47:54.551Z,28.63
2022-12-31T21:53:06.129Z,30.45
2022-12-31T21:58:28.452Z,29.58
2022-12-31T22:09:08.519Z,26.85
2022-12-31T22:14:19.369Z,27.95
2022-12-31T22:20:27.874Z,31.02
2022-12-31T22:25:37.549Z,30.90
2022-12-31T22:31:19.027Z,30.17
2022-12-31T22:36:26.022Z,31.17
2022-12-31T22:42:03.770Z,31.40
2022-12-31T22:53:17.973Z,28.42
2022-12-31T22:58:29.124Z,27.80
2022-12-31T23:03:35.886Z,28.95
2022-12-31T23:09:06.498Z,31.45
2022-12-31T23:14:31.926Z,40.47
2022-12-31T23:19:50.813Z,43.85
2022-12-31T23:24:56.576Z,47.40
2022-12-31T23:30:05.447Z,37.65
2022-12-31T23:35:12.225Z,39.40
2022-12-31T23:40:21.454Z,37.28
2022-12-31T23:45:33.263Z,38.70
2022-12-31T23:50:40.145Z,36.90
2022-12-31T23:55:45.879Z,34.95
